Time;durP1;ratioP1;P1;durP2;ratioP2;P2;SDS_P1;SDS_P2;PMS_P1;PMS_P2;Temp;Humidity;BMP_temperature;BMP_pressure;BME280_temperature;BME280_humidity;BME280_pressure;Samples;Min_cycle;Max_cycle;Signal;HPM_P1;HPM_P2
2023/05/08 00:01:32;;;;;;;12.48;10.85;;;;;;;14.22;100.00;101917.00;4988307;28;20045;-68
2023/05/08 00:03:58;;;;;;;14.40;10.93;;;;;;;14.21;100.00;101914.34;4988748;28;20137;-68
2023/05/08 00:06:23;;;;;;;12.23;10.15;;;;;;;14.19;100.00;101921.78;4988609;28;20113;-68
2023/05/08 00:08:49;;;;;;;12.48;10.55;;;;;;;14.18;100.00;101922.78;4986140;28;20066;-68
2023/05/08 00:11:14;;;;;;;14.07;11.25;;;;;;;14.18;100.00;101931.00;4987811;28;20038;-67
2023/05/08 00:13:40;;;;;;;12.30;10.23;;;;;;;14.17;100.00;101930.09;4988756;28;20042;-68
2023/05/08 00:16:08;;;;;;;12.68;10.68;;;;;;;14.17;100.00;101921.88;4988198;28;20058;-67
2023/05/08 00:18:34;;;;;;;16.15;11.32;;;;;;;14.19;100.00;101916.31;4988032;28;20038;-68
2023/05/08 00:21:00;;;;;;;14.32;11.00;;;;;;;14.19;100.00;101922.66;4987861;28;20124;-67
2023/05/08 00:23:25;;;;;;;13.63;11.18;;;;;;;14.17;100.00;101915.53;4987636;28;20491;-67
2023/05/08 00:25:51;;;;;;;13.10;11.15;;;;;;;14.16;100.00;101914.66;4988549;28;20041;-67
2023/05/08 00:28:16;;;;;;;15.88;10.93;;;;;;;14.15;100.00;101917.53;4988034;28;20041;-68
2023/05/08 00:30:42;;;;;;;11.88;9.93;;;;;;;14.14;100.00;101916.66;4986587;28;20042;-67
2023/05/08 00:33:08;;;;;;;11.32;9.52;;;;;;;14.13;100.00;101914.91;4987705;28;20064;-67
2023/05/08 00:35:33;;;;;;;12.32;10.50;;;;;;;14.09;100.00;101907.88;4996970;28;20038;-67
2023/05/08 00:37:58;;;;;;;14.02;11.35;;;;;;;14.14;100.00;101913.03;4985145;28;20138;-68
2023/05/08 00:40:24;;;;;;;15.40;11.80;;;;;;;14.14;100.00;101913.03;4988181;28;20052;-67
2023/05/08 00:42:49;;;;;;;13.63;11.13;;;;;;;14.16;100.00;101911.06;4987140;28;20475;-67
2023/05/08 00:45:15;;;;;;;12.85;10.88;;;;;;;14.16;100.00;101914.66;4987647;28;20145;-67
2023/05/08 00:47:41;;;;;;;13.35;11.43;;;;;;;14.15;100.00;101914.78;4986555;28;20026;-68
2023/05/08 00:50:07;;;;;;;15.00;12.05;;;;;;;14.14;100.00;101911.19;4987498;28;20033;-68
2023/05/08 00:52:32;;;;;;;17.33;13.20;;;;;;;14.12;100.00;101904.03;4986185;28;20030;-67
2023/05/08 00:54:59;;;;;;;18.02;12.98;;;;;;;14.11;100.00;101902.28;4991136;28;20054;-67
2023/05/08 00:57:25;;;;;;;17.15;12.07;;;;;;;14.11;100.00;101910.50;4987711;28;20045;-67
2023/05/08 00:59:52;;;;;;;15.82;12.55;;;;;;;14.11;100.00;101908.66;5002957;28;20038;-67
2023/05/08 01:02:19;;;;;;;14.13;12.35;;;;;;;14.07;100.00;101908.97;4987340;28;20037;-68
2023/05/08 01:04:47;;;;;;;14.32;11.73;;;;;;;14.05;100.00;101906.34;4987346;28;20207;-67
2023/05/08 01:07:12;;;;;;;16.23;10.57;;;;;;;14.04;100.00;101904.59;4986026;28;20081;-67
2023/05/08 01:09:38;;;;;;;14.32;11.30;;;;;;;14.03;100.00;101902.81;4987513;28;20070;-68
2023/05/08 01:12:19;;;;;;;12.02;10.63;;;;;;;14.04;100.00;101907.34;4985983;28;20046;-68
2023/05/08 01:14:56;;;;;;;12.73;10.48;;;;;;;13.98;100.00;101905.88;4987527;28;20085;-67
2023/05/08 01:17:49;;;;;;;15.55;10.52;;;;;;;14.05;100.00;101911.81;4986662;28;20038;-67
2023/05/08 01:20:28;;;;;;;14.00;11.20;;;;;;;14.03;100.00;101902.81;4989977;28;20041;-68
2023/05/08 01:23:07;;;;;;;14.18;10.05;;;;;;;14.04;100.00;101902.75;5004746;28;20061;-67
2023/05/08 01:25:54;;;;;;;13.13;10.38;;;;;;;14.05;100.00;101900.88;5004812;28;20047;-68
2023/05/08 01:28:51;;;;;;;14.75;11.07;;;;;;;14.04;100.00;101894.53;4987312;28;20435;-67
2023/05/08 01:31:28;;;;;;;14.60;9.98;;;;;;;14.03;100.00;101891.88;4987247;28;20042;-68
2023/05/08 01:34:05;;;;;;;11.63;10.00;;;;;;;14.04;100.00;101905.47;4987586;28;20107;-67
2023/05/08 01:36:53;;;;;;;14.02;11.55;;;;;;;14.03;100.00;101909.19;4986883;28;20038;-68
2023/05/08 01:39:38;;;;;;;15.38;10.55;;;;;;;14.02;100.00;101910.16;4987525;28;20038;-69
2023/05/08 01:42:38;;;;;;;15.10;11.35;;;;;;;14.01;100.00;101905.69;4986400;28;20528;-67
2023/05/08 01:45:15;;;;;;;15.50;11.77;;;;;;;13.96;100.00;101899.66;4987203;28;20070;-67
2023/05/08 01:47:43;;;;;;;14.05;11.20;;;;;;;13.96;100.00;101905.13;4986680;28;20042;-67
2023/05/08 01:50:37;;;;;;;16.10;11.85;;;;;;;13.99;100.00;101901.31;4987425;28;20037;-68
2023/05/08 01:53:17;;;;;;;14.07;11.00;;;;;;;13.97;100.00;101901.41;4982127;28;20080;-67
2023/05/08 01:55:47;;;;;;;14.45;12.05;;;;;;;13.94;100.00;101904.38;4985743;28;20041;-67
2023/05/08 01:58:13;;;;;;;15.80;12.35;;;;;;;13.93;100.00;101904.44;4985468;28;20038;-67
2023/05/08 02:00:41;;;;;;;15.05;12.40;;;;;;;13.90;100.00;101899.22;4985710;28;20042;-67
2023/05/08 02:03:09;;;;;;;16.95;13.32;;;;;;;13.90;100.00;101904.69;4986755;28;20451;-67
2023/05/08 02:05:39;;;;;;;15.52;12.60;;;;;;;13.88;100.00;101902.03;4999831;28;20058;-68
2023/05/08 02:08:08;;;;;;;19.17;14.38;;;;;;;13.88;100.00;101910.25;4984167;28;20053;-67
2023/05/08 02:10:35;;;;;;;15.18;12.10;;;;;;;13.83;100.00;101909.69;4986408;28;20478;-67
2023/05/08 02:13:02;;;;;;;14.95;12.10;;;;;;;13.83;100.00;101915.16;4985234;28;20033;-67
2023/05/08 02:15:30;;;;;;;14.90;11.88;;;;;;;13.83;100.00;101917.91;4985881;28;20486;-67
2023/05/08 02:17:57;;;;;;;14.60;10.70;;;;;;;13.81;100.00;101908.94;4986930;28;20018;-67
2023/05/08 02:20:24;;;;;;;14.98;11.85;;;;;;;13.80;100.00;101909.91;4987430;28;20057;-67
2023/05/08 02:22:50;;;;;;;14.48;11.27;;;;;;;13.77;100.00;101918.34;4986321;28;20074;-68
2023/05/08 02:25:17;;;;;;;15.27;11.20;;;;;;;13.80;100.00;101923.56;4989522;28;20065;-67
2023/05/08 02:27:46;;;;;;;12.90;10.82;;;;;;;13.81;100.00;101925.34;5002491;28;20064;-67
2023/05/08 02:30:14;;;;;;;15.02;12.07;;;;;;;13.82;100.00;101918.88;4998581;28;20462;-67
2023/05/08 02:32:42;;;;;;;17.02;12.13;;;;;;;13.85;100.00;101920.50;5008392;28;20060;-67
2023/05/08 02:35:11;;;;;;;14.82;12.15;;;;;;;13.86;100.00;101922.28;5007535;28;20022;-67
2023/05/08 02:37:38;;;;;;;15.95;11.73;;;;;;;13.86;100.00;101920.44;5008750;28;20402;-68
2023/05/08 02:40:07;;;;;;;13.80;11.20;;;;;;;13.86;100.00;101928.63;5008483;28;20022;-67
2023/05/08 02:42:33;;;;;;;16.40;11.93;;;;;;;13.85;100.00;101926.00;4990921;28;20126;-67
2023/05/08 02:44:58;;;;;;;13.18;10.90;;;;;;;13.86;100.00;101920.44;4990338;28;20351;-67
2023/05/08 02:47:28;;;;;;;13.88;11.60;;;;;;;13.86;100.00;101925.03;4990489;28;20026;-67
2023/05/08 02:50:08;;;;;;;14.48;11.95;;;;;;;13.85;100.00;101926.91;4989481;28;20498;-67
2023/05/08 02:52:48;;;;;;;18.55;12.07;;;;;;;13.85;100.00;101920.50;4987699;28;20482;-67
2023/05/08 02:55:16;;;;;;;15.55;11.70;;;;;;;13.84;100.00;101918.78;5001770;28;20034;-67
2023/05/08 02:57:41;;;;;;;18.02;12.60;;;;;;;13.82;100.00;101916.16;4989309;28;20034;-67
2023/05/08 03:00:11;;;;;;;17.33;12.82;;;;;;;13.82;100.00;101924.34;4988676;28;20189;-67
2023/05/08 03:02:46;;;;;;;18.42;14.15;;;;;;;13.81;100.00;101919.00;4989715;28;20532;-67
2023/05/08 03:05:23;;;;;;;19.77;14.88;;;;;;;13.77;100.00;101918.34;4989845;28;20066;-67
2023/05/08 03:07:51;;;;;;;22.15;13.43;;;;;;;13.73;100.00;101914.06;4986918;28;20042;-67
2023/05/08 03:10:23;;;;;;;14.63;11.80;;;;;;;13.74;100.00;101913.94;4989800;28;20054;-67
2023/05/08 03:12:52;;;;;;;16.55;12.35;;;;;;;13.74;100.00;101919.41;4989178;28;20080;-67
2023/05/08 03:15:26;;;;;;;16.95;13.15;;;;;;;13.75;100.00;101915.69;4988499;28;20042;-67
2023/05/08 03:17:57;;;;;;;22.83;14.35;;;;;;;13.72;100.00;101912.31;4990198;28;20530;-67
2023/05/08 03:20:27;;;;;;;20.60;14.60;;;;;;;13.72;100.00;101907.72;5005282;28;20690;-67
2023/05/08 03:22:54;;;;;;;16.05;13.10;;;;;;;13.72;100.00;101906.84;4988828;28;20052;-67
2023/05/08 03:25:20;;;;;;;17.58;12.50;;;;;;;13.70;100.00;101911.50;4987807;28;20422;-67
2023/05/08 03:27:47;;;;;;;20.30;13.65;;;;;;;13.66;100.00;101913.59;4989001;28;20062;-68
2023/05/08 03:30:15;;;;;;;22.08;15.07;;;;;;;13.65;100.00;101910.94;4989491;28;20470;-67
2023/05/08 03:32:45;;;;;;;20.30;15.13;;;;;;;13.61;100.00;101918.47;5003935;28;20045;-67
2023/05/08 03:35:13;;;;;;;19.45;14.93;;;;;;;13.59;100.00;101920.47;4993211;28;20081;-67
2023/05/08 03:37:39;;;;;;;19.05;14.80;;;;;;;13.58;100.00;101913.25;4986234;28;20030;-67
2023/05/08 03:40:06;;;;;;;23.95;15.60;;;;;;;13.58;100.00;101912.38;4987671;28;20026;-67
2023/05/08 03:42:32;;;;;;;20.70;15.38;;;;;;;13.56;100.00;101898.78;4988497;28;20030;-67
2023/05/08 03:45:01;;;;;;;20.13;15.50;;;;;;;13.55;100.00;101910.72;5004037;28;20146;-67
2023/05/08 03:47:27;;;;;;;19.38;13.80;;;;;;;13.51;100.00;101901.81;4987412;28;20030;-67
2023/05/08 03:49:53;;;;;;;19.42;14.43;;;;;;;13.48;100.00;101903.91;4988098;28;20442;-67
2023/05/08 03:52:18;;;;;;;20.08;14.70;;;;;;;13.45;100.00;101907.72;4986420;28;20030;-67
2023/05/08 03:54:44;;;;;;;18.67;14.43;;;;;;;13.41;100.00;101900.72;4987846;28;20026;-67
2023/05/08 03:57:10;;;;;;;23.25;16.05;;;;;;;13.37;100.00;101904.63;4998928;28;20532;-67
2023/05/08 04:00:03;;;;;;;16.75;12.70;;;;;;;13.37;100.00;101907.34;5000114;28;20117;-67
2023/05/08 04:03:14;;;;;;;20.77;12.93;;;;;;;13.37;100.00;101903.75;4988717;28;20065;-67
2023/05/08 04:05:51;;;;;;;22.25;14.73;;;;;;;13.32;100.00;101903.19;4987336;28;20057;-67
2023/05/08 04:08:30;;;;;;;23.30;14.70;;;;;;;13.28;100.00;101897.91;4985478;28;20034;-67
2023/05/08 04:11:08;;;;;;;18.63;14.40;;;;;;;13.28;100.00;101911.56;5002887;28;20089;-67
2023/05/08 04:13:41;;;;;;;20.98;14.85;;;;;;;13.27;100.00;101912.56;4987440;28;20053;-67
2023/05/08 04:16:22;;;;;;;18.38;13.38;;;;;;;13.27;100.00;101918.03;4987270;28;20104;-67
2023/05/08 04:18:51;;;;;;;16.80;12.48;;;;;;;13.26;100.00;101912.69;5003839;28;20041;-67
2023/05/08 04:21:21;;;;;;;17.85;12.98;;;;;;;13.27;100.00;101917.16;5006502;28;20663;-67
2023/05/08 04:23:50;;;;;;;15.32;11.73;;;;;;;13.27;100.00;101915.28;4972462;28;20026;-67
2023/05/08 04:26:17;;;;;;;19.98;13.43;;;;;;;13.28;100.00;101921.63;4986447;28;20257;-67
2023/05/08 04:28:45;;;;;;;22.05;15.02;;;;;;;13.27;100.00;101918.03;4986750;28;20030;-67
2023/05/08 04:31:14;;;;;;;20.33;14.55;;;;;;;13.29;100.00;101923.41;4987642;28;20506;-67
2023/05/08 04:33:42;;;;;;;22.55;15.30;;;;;;;13.29;100.00;101917.94;4990704;28;20042;-67
2023/05/08 04:36:11;;;;;;;25.20;17.65;;;;;;;13.30;100.00;101922.44;4986012;28;20026;-67
2023/05/08 04:38:36;;;;;;;23.13;16.55;;;;;;;13.33;100.00;101924.94;4986080;28;20168;-67
2023/05/08 04:41:03;;;;;;;23.42;16.42;;;;;;;13.38;100.00;101930.09;4986151;28;20026;-67
2023/05/08 04:43:28;;;;;;;23.20;16.48;;;;;;;13.38;100.00;101925.53;4987791;28;20392;-67
2023/05/08 04:45:54;;;;;;;24.65;15.13;;;;;;;13.42;100.00;101932.53;4986882;28;20478;-67
2023/05/08 04:48:19;;;;;;;25.83;16.17;;;;;;;13.45;100.00;101932.31;4984741;28;20057;-67
2023/05/08 04:50:45;;;;;;;20.85;15.68;;;;;;;13.51;100.00;101934.63;4988085;28;20335;-68
2023/05/08 04:53:10;;;;;;;21.38;15.48;;;;;;;13.55;100.00;101932.59;4988953;28;20450;-67
2023/05/08 04:55:35;;;;;;;19.67;14.43;;;;;;;13.59;100.00;101942.34;4987026;28;20033;-67
2023/05/08 04:58:01;;;;;;;22.20;15.02;;;;;;;13.64;100.00;101942.91;5002399;28;20522;-67
2023/05/08 05:00:26;;;;;;;21.17;14.77;;;;;;;13.69;100.00;101948.94;4986706;28;20117;-67
2023/05/08 05:02:52;;;;;;;22.50;14.90;;;;;;;13.73;100.00;101946.88;4988112;28;20443;-66
2023/05/08 05:05:17;;;;;;;19.25;14.88;;;;;;;13.75;100.00;101947.63;4988684;28;20104;-67
2023/05/08 05:07:43;;;;;;;21.67;15.35;;;;;;;13.76;100.00;101950.28;4986234;28;20031;-67
2023/05/08 05:10:10;;;;;;;18.88;14.80;;;;;;;13.77;100.00;101954.75;4985959;28;20046;-67
2023/05/08 05:12:36;;;;;;;18.92;13.82;;;;;;;13.82;100.00;101956.31;4985902;28;20045;-67
2023/05/08 05:15:02;;;;;;;18.25;13.68;;;;;;;13.87;100.00;101955.00;4986224;28;20592;-67
2023/05/08 05:17:32;;;;;;;20.40;14.27;;;;;;;13.89;100.00;101966.69;4985940;28;20468;-67
2023/05/08 05:19:58;;;;;;;21.50;16.60;;;;;;;13.92;100.00;101965.63;4994220;28;20117;-67
2023/05/08 05:22:24;;;;;;;22.38;15.68;;;;;;;13.94;100.00;101967.28;4985535;28;20034;-67
2023/05/08 05:24:49;;;;;;;22.92;16.92;;;;;;;13.98;100.00;101974.28;4987539;28;20048;-67
2023/05/08 05:27:14;;;;;;;24.67;16.27;;;;;;;13.99;100.00;101976.06;4985253;28;20213;-67
2023/05/08 05:29:40;;;;;;;23.55;15.93;;;;;;;14.02;100.00;101970.34;4985514;28;20044;-67
2023/05/08 05:32:06;;;;;;;24.77;17.08;;;;;;;14.04;100.00;101976.63;4999735;28;20038;-67
2023/05/08 05:34:31;;;;;;;25.30;17.63;;;;;;;14.08;100.00;101969.06;5002159;28;20501;-67
2023/05/08 05:36:57;;;;;;;26.60;18.25;;;;;;;14.15;100.00;101975.88;4985713;28;20037;-67
2023/05/08 05:39:22;;;;;;;30.13;21.05;;;;;;;14.17;100.00;101973.88;4986306;28;20044;-67
2023/05/08 05:41:47;;;;;;;29.92;20.58;;;;;;;14.25;100.00;101970.63;4985681;28;20026;-67
2023/05/08 05:44:13;;;;;;;30.52;20.80;;;;;;;14.32;100.00;101971.97;4987499;28;20110;-67
2023/05/08 05:46:38;;;;;;;34.30;22.27;;;;;;;14.39;100.00;101978.75;4998191;28;20050;-67
2023/05/08 05:49:04;;;;;;;33.78;21.95;;;;;;;14.46;100.00;101980.09;4985441;28;20077;-67
2023/05/08 05:51:31;;;;;;;34.55;22.17;;;;;;;14.53;100.00;101980.53;4985319;28;20284;-67
2023/05/08 05:53:57;;;;;;;36.55;23.55;;;;;;;14.57;100.00;101982.09;4985125;28;20537;-67
2023/05/08 05:56:23;;;;;;;35.70;23.33;;;;;;;14.62;100.00;101979.88;4990034;28;20036;-67
2023/05/08 05:58:49;;;;;;;33.95;23.70;;;;;;;14.70;100.00;101990.31;4987679;28;20133;-67
2023/05/08 06:01:14;;;;;;;40.17;26.95;;;;;;;14.74;100.00;101995.47;5005405;28;20376;-68
2023/05/08 06:03:40;;;;;;;35.70;24.75;;;;;;;14.80;100.00;101997.75;4989250;28;20492;-67
2023/05/08 06:06:05;;;;;;;38.50;24.77;;;;;;;14.83;100.00;101987.53;4989314;28;20046;-65
2023/05/08 06:08:30;;;;;;;42.00;27.17;;;;;;;14.86;100.00;101990.06;4991090;28;20038;-67
2023/05/08 06:10:56;;;;;;;35.10;23.85;;;;;;;14.93;100.00;101988.66;5005282;28;20089;-67
2023/05/08 06:13:22;;;;;;;45.47;29.02;;;;;;;14.97;100.00;101987.44;4990056;28;20153;-67
2023/05/08 06:15:49;;;;;;;41.17;27.55;;;;;;;15.02;100.00;101986.13;5002481;28;20128;-67
2023/05/08 06:18:15;;;;;;;43.38;28.95;;;;;;;15.04;100.00;101989.59;5005098;28;20314;-67
2023/05/08 06:20:41;;;;;;;49.90;31.20;;;;;;;15.10;100.00;101993.75;5009579;28;20048;-67
2023/05/08 06:23:06;;;;;;;49.47;30.52;;;;;;;15.12;100.00;101989.06;4997633;28;20037;-67
2023/05/08 06:25:32;;;;;;;46.28;31.15;;;;;;;15.17;100.00;101992.34;5000698;28;20050;-67
2023/05/08 06:27:57;;;;;;;49.38;31.27;;;;;;;15.20;100.00;101991.22;5001121;28;20050;-67
2023/05/08 06:30:22;;;;;;;46.47;31.88;;;;;;;15.23;100.00;101986.38;4992620;28;20042;-67
2023/05/08 06:32:48;;;;;;;46.70;30.08;;;;;;;15.26;100.00;101991.66;4989545;28;20034;-67
2023/05/08 06:35:18;;;;;;;48.45;31.90;;;;;;;15.34;100.00;101991.09;4995392;28;20041;-67
2023/05/08 06:37:44;;;;;;;52.08;33.05;;;;;;;15.36;100.00;101993.72;5005799;28;20041;-67
2023/05/08 06:40:10;;;;;;;54.95;32.40;;;;;;;15.38;100.00;102003.56;4990196;28;20022;-67
2023/05/08 06:42:36;;;;;;;51.85;34.83;;;;;;;15.42;100.00;102005.09;5002232;28;20088;-67
2023/05/08 06:45:02;;;;;;;54.08;34.63;;;;;;;15.44;100.00;102003.13;4996819;28;20547;-67
2023/05/08 06:47:27;;;;;;;57.13;35.47;;;;;;;15.44;100.00;101996.78;5009459;28;20033;-67
2023/05/08 06:49:53;;;;;;;55.78;36.33;;;;;;;15.45;100.00;101999.38;4994307;28;20493;-68
2023/05/08 06:52:19;;;;;;;56.05;36.00;;;;;;;15.43;100.00;102006.84;4988548;28;20034;-67
2023/05/08 06:54:45;;;;;;;58.83;34.97;;;;;;;15.45;100.00;102007.63;5003171;28;20030;-68
2023/05/08 06:57:12;;;;;;;54.85;34.85;;;;;;;15.51;100.00;102009.91;4992884;28;20034;-67
2023/05/08 06:59:37;;;;;;;56.00;35.80;;;;;;;15.55;100.00;102008.69;4988194;28;20050;-67
2023/05/08 07:02:03;;;;;;;52.85;33.42;;;;;;;15.59;100.00;102011.19;4989418;28;20062;-67
2023/05/08 07:04:28;;;;;;;52.53;32.50;;;;;;;15.63;100.00;102015.47;4989325;28;20050;-66
2023/05/08 07:06:54;;;;;;;55.80;33.58;;;;;;;15.59;100.00;102016.69;4989042;28;20035;-68
2023/05/08 07:09:19;;;;;;;48.15;30.70;;;;;;;15.58;100.00;102021.31;4989827;28;20046;-67
2023/05/08 07:11:45;;;;;;;51.33;30.23;;;;;;;15.61;100.00;102026.53;4989064;28;20168;-68
2023/05/08 07:14:10;;;;;;;45.47;29.63;;;;;;;15.66;100.00;102029.84;4989711;28;20042;-67
2023/05/08 07:16:36;;;;;;;47.10;30.25;;;;;;;15.71;100.00;102026.75;4989846;28;20050;-67
2023/05/08 07:19:02;;;;;;;46.15;30.65;;;;;;;15.73;100.00;102022.03;4989711;28;20034;-68
2023/05/08 07:21:28;;;;;;;51.28;32.50;;;;;;;15.71;100.00;102016.66;4987998;28;20521;-67
2023/05/08 07:23:53;;;;;;;48.70;30.80;;;;;;;15.73;100.00;102014.69;4989330;28;20038;-67
2023/05/08 07:26:20;;;;;;;49.70;31.63;;;;;;;15.73;100.00;102011.94;4989068;28;20443;-67
2023/05/08 07:28:45;;;;;;;48.83;31.38;;;;;;;15.78;100.00;102017.09;4989268;28;20065;-67
2023/05/08 07:31:11;;;;;;;47.20;30.45;;;;;;;15.80;100.00;102020.56;4989570;28;20077;-67
2023/05/08 07:33:36;;;;;;;47.47;30.25;;;;;;;15.85;100.00;102012.88;5005666;28;20033;-67
2023/05/08 07:36:02;;;;;;;50.10;31.23;;;;;;;15.87;100.00;102010.91;4989685;28;20030;-67
2023/05/08 07:38:27;;;;;;;56.72;35.47;;;;;;;15.94;100.00;102011.28;4999092;28;20041;-67
2023/05/08 07:40:55;;;;;;;53.17;32.65;;;;;;;15.98;100.00;102013.69;4994628;28;20465;-68
2023/05/08 07:43:22;;;;;;;54.10;32.92;;;;;;;15.98;100.00;102018.31;4991387;28;20033;-67
2023/05/08 07:45:47;;;;;;;50.45;31.88;;;;;;;16.05;99.77;102016.84;5002218;28;20037;-68
2023/05/08 07:48:13;;;;;;;52.97;31.85;;;;;;;16.17;100.00;102010.41;4996146;28;20043;-67
2023/05/08 07:50:38;;;;;;;54.42;33.00;;;;;;;16.28;100.00;102012.31;4995221;28;20057;-68
2023/05/08 07:53:03;;;;;;;54.25;33.30;;;;;;;16.42;100.00;102005.75;5007221;28;20033;-67
2023/05/08 07:55:29;;;;;;;54.97;34.45;;;;;;;16.47;100.00;102004.38;5008048;28;20100;-68
2023/05/08 07:57:54;;;;;;;54.88;32.22;;;;;;;16.56;100.00;102014.66;4994887;28;20509;-67
2023/05/08 08:00:19;;;;;;;53.50;32.97;;;;;;;16.72;100.00;102013.47;4991680;28;20663;-67
2023/05/08 08:02:45;;;;;;;48.95;30.90;;;;;;;16.81;100.00;102007.22;5008187;28;20148;-67
2023/05/08 08:05:10;;;;;;;47.50;30.35;;;;;;;17.02;97.64;102012.84;4991102;28;20088;-68
2023/05/08 08:07:36;;;;;;;49.38;30.63;;;;;;;17.18;97.92;102013.38;5006690;28;20117;-68
2023/05/08 08:10:03;;;;;;;52.03;32.20;;;;;;;17.37;97.62;102011.84;4992864;28;20039;-69
2023/05/08 08:12:29;;;;;;;46.63;30.50;;;;;;;17.50;96.34;102005.22;4998118;28;20378;-68
2023/05/08 08:14:55;;;;;;;49.67;32.83;;;;;;;17.58;95.27;102015.59;5008553;28;20529;-68
2023/05/08 08:17:21;;;;;;;50.40;33.38;;;;;;;17.78;94.66;102009.31;4986918;28;20076;-68
2023/05/08 08:19:46;;;;;;;49.28;30.80;;;;;;;17.99;95.08;102011.22;5004783;28;20061;-68
2023/05/08 08:22:12;;;;;;;43.78;29.17;;;;;;;18.18;93.91;102014.16;5002896;28;20022;-68
2023/05/08 08:24:37;;;;;;;43.90;29.50;;;;;;;18.35;91.90;102020.97;4988305;28;20050;-68
2023/05/08 08:27:03;;;;;;;40.90;27.30;;;;;;;18.46;88.33;102014.53;4987484;28;20033;-68
2023/05/08 08:29:29;;;;;;;42.53;28.92;;;;;;;18.57;90.38;102017.22;4988020;28;20042;-68
2023/05/08 08:31:55;;;;;;;37.08;26.50;;;;;;;18.55;88.81;102009.06;4988789;28;20042;-68
2023/05/08 08:34:21;;;;;;;38.50;26.77;;;;;;;18.57;85.74;102003.44;4987058;28;20477;-68
2023/05/08 08:36:46;;;;;;;42.30;27.63;;;;;;;18.53;89.13;102010.25;4985812;28;20041;-68
2023/05/08 08:39:11;;;;;;;41.58;27.60;;;;;;;18.74;88.78;102007.50;5002174;28;20129;-68
2023/05/08 08:41:40;;;;;;;40.95;26.85;;;;;;;18.97;88.75;102003.56;4987131;28;20077;-68
2023/05/08 08:44:06;;;;;;;36.47;25.63;;;;;;;19.18;85.98;102002.66;4986601;28;20080;-68
2023/05/08 08:46:32;;;;;;;45.08;25.80;;;;;;;19.32;84.87;102007.78;4987201;28;20085;-68
2023/05/08 08:48:58;;;;;;;37.72;26.95;;;;;;;19.47;85.71;102009.13;4987295;28;20378;-68
2023/05/08 08:51:30;;;;;;;35.50;26.27;;;;;;;19.45;83.94;102004.78;4987822;28;20347;-68
2023/05/08 08:54:11;;;;;;;42.05;26.77;;;;;;;19.42;83.96;102010.56;4987413;28;20560;-68
2023/05/08 08:56:39;;;;;;;37.10;27.13;;;;;;;19.45;85.36;102008.41;4986956;28;20057;-68
2023/05/08 08:59:05;;;;;;;34.15;26.30;;;;;;;19.48;83.57;102005.34;4987759;28;20022;-68
2023/05/08 09:01:34;;;;;;;36.47;26.70;;;;;;;19.55;84.28;102011.19;4986997;28;20037;-66
2023/05/08 09:04:01;;;;;;;39.90;26.75;;;;;;;19.52;81.72;102015.09;4987536;28;20066;-66
2023/05/08 09:06:27;;;;;;;36.15;25.83;;;;;;;19.49;79.80;102011.75;4982349;28;20425;-66
2023/05/08 09:08:57;;;;;;;34.53;26.00;;;;;;;19.44;84.99;102014.06;4987266;28;20058;-66
2023/05/08 09:11:27;;;;;;;33.33;24.70;;;;;;;19.61;84.16;102018.94;4987517;28;20042;-66
2023/05/08 09:13:54;;;;;;;34.30;24.27;;;;;;;19.73;83.25;102020.59;4988155;28;20102;-66
2023/05/08 09:16:20;;;;;;;30.83;22.95;;;;;;;19.81;82.91;102022.63;4987452;28;20504;-66
2023/05/08 09:18:45;;;;;;;31.20;22.70;;;;;;;19.87;81.43;102013.78;4987030;28;20045;-66
2023/05/08 09:21:11;;;;;;;36.05;22.98;;;;;;;19.81;80.82;102019.84;4987037;28;20069;-66
2023/05/08 09:23:56;;;;;;;35.70;25.75;;;;;;;19.79;83.90;102021.91;4986314;28;20045;-66
2023/05/08 09:26:33;;;;;;;34.63;25.30;;;;;;;19.70;82.53;102023.63;4987319;28;20053;-67
2023/05/08 09:29:19;;;;;;;33.67;24.55;;;;;;;19.81;82.43;102015.19;4985843;28;20062;-66
2023/05/08 09:31:47;;;;;;;37.67;25.15;;;;;;;19.95;83.64;102016.66;4985624;28;20038;-67
2023/05/08 09:34:30;;;;;;;34.72;24.13;;;;;;;20.23;82.16;102014.06;4986775;28;20415;-66
2023/05/08 09:37:16;;;;;;;32.75;25.50;;;;;;;20.28;82.09;102015.38;4986100;28;20479;-66
2023/05/08 09:39:42;;;;;;;37.50;26.00;;;;;;;20.12;79.98;102015.09;4986625;28;20161;-66
2023/05/08 09:42:08;;;;;;;33.08;24.80;;;;;;;20.15;80.58;102013.94;4986735;28;20397;-66
2023/05/08 09:44:44;;;;;;;34.00;25.95;;;;;;;20.31;82.87;102014.22;4985775;28;20125;-67
2023/05/08 09:47:11;;;;;;;39.40;27.58;;;;;;;20.36;78.65;102010.00;4986794;28;20125;-67
2023/05/08 09:49:38;;;;;;;36.20;25.70;;;;;;;20.50;79.25;102007.84;4986644;28;20034;-66
2023/05/08 09:52:04;;;;;;;39.30;28.05;;;;;;;20.54;78.95;102009.28;4985429;28;20308;-67
2023/05/08 09:54:29;;;;;;;42.40;27.85;;;;;;;20.52;80.36;102011.34;4985691;28;20069;-67
2023/05/08 09:56:55;;;;;;;69.68;35.85;;;;;;;20.45;79.63;102005.47;4987037;28;20124;-67
2023/05/08 09:59:23;;;;;;;92.18;42.22;;;;;;;20.32;80.53;102016.84;4986854;28;20042;-66
2023/05/08 10:01:49;;;;;;;50.40;30.95;;;;;;;20.22;80.71;102015.97;4986282;28;20042;-66
2023/05/08 10:04:15;;;;;;;43.92;30.90;;;;;;;20.07;80.79;102020.19;4986643;28;20054;-67
2023/05/08 10:06:40;;;;;;;54.25;33.50;;;;;;;19.96;81.29;102025.84;4997501;28;20046;-66
2023/05/08 10:09:13;;;;;;;48.20;32.90;;;;;;;19.98;83.19;102013.63;4986122;28;20049;-67
2023/05/08 10:11:52;;;;;;;46.50;30.95;;;;;;;19.99;83.15;102014.50;4985904;28;20035;-67
2023/05/08 10:14:19;;;;;;;49.50;31.80;;;;;;;19.99;81.82;102025.56;4986953;28;20042;-67
2023/05/08 10:16:47;;;;;;;48.80;32.53;;;;;;;20.00;82.53;102019.00;4986439;28;20168;-66
2023/05/08 10:19:14;;;;;;;48.72;31.38;;;;;;;19.92;81.33;102018.88;4986379;28;20426;-66
2023/05/08 10:21:45;;;;;;;49.38;31.48;;;;;;;19.86;81.30;102021.19;5004331;28;20037;-66
2023/05/08 10:24:19;;;;;;;49.13;32.58;;;;;;;19.75;82.71;102020.44;5003758;28;20547;-67
2023/05/08 10:27:12;;;;;;;51.30;32.45;;;;;;;19.75;83.00;102021.31;4985831;28;20613;-66
2023/05/08 10:30:03;;;;;;;51.63;32.60;;;;;;;19.71;82.82;102022.59;4990006;28;20060;-66
2023/05/08 10:32:34;;;;;;;54.75;32.28;;;;;;;19.57;83.72;102028.50;5001138;28;20135;-67
2023/05/08 10:35:01;;;;;;;48.53;31.10;;;;;;;19.53;84.22;102029.78;4995204;28;20568;-67
2023/05/08 10:37:29;;;;;;;51.85;33.38;;;;;;;19.53;82.72;102027.00;4994965;28;20046;-66
2023/05/08 10:39:56;;;;;;;52.10;31.85;;;;;;;19.50;82.92;102016.28;5000135;28;20183;-67
2023/05/08 10:42:21;;;;;;;52.42;33.20;;;;;;;19.51;82.86;102023.53;4989418;28;20041;-66
2023/05/08 10:44:47;;;;;;;52.78;34.03;;;;;;;19.52;82.78;102025.28;5005402;28;20054;-66
2023/05/08 10:47:51;;;;;;;57.13;33.75;;;;;;;19.52;83.75;102020.63;4994442;28;20034;-67
2023/05/08 10:50:32;;;;;;;53.33;33.60;;;;;;;19.51;82.00;102018.00;4978695;28;20065;-67
2023/05/08 10:53:10;;;;;;;56.35;34.53;;;;;;;19.63;82.28;102025.19;5008160;28;20108;-66
2023/05/08 10:55:37;;;;;;;59.53;34.10;;;;;;;19.71;81.90;102008.78;4996523;28;20085;-67
2023/05/08 10:58:09;;;;;;;59.80;33.63;;;;;;;19.92;81.51;102010.59;4999372;28;20038;-66
2023/05/08 11:00:58;;;;;;;56.50;35.72;;;;;;;20.00;79.91;102005.19;4997621;28;20057;-66
2023/05/08 11:03:25;;;;;;;55.22;34.58;;;;;;;20.04;81.53;102009.41;4989811;28;20031;-67
2023/05/08 11:05:52;;;;;;;55.22;33.40;;;;;;;20.21;81.88;102008.69;4990032;28;20053;-66
2023/05/08 11:08:23;;;;;;;55.35;33.97;;;;;;;20.43;81.59;101995.59;5000031;28;20540;-66
2023/05/08 11:11:01;;;;;;;55.55;33.50;;;;;;;20.58;80.59;102008.84;4989040;28;20034;-67
2023/05/08 11:13:29;;;;;;;58.60;35.30;;;;;;;20.63;79.83;102003.75;4997930;28;20038;-67